Fort Smith Airport
CYSM : now visible

Airfield :











YOU CAN JOIN US ON...

 
LOGIN :

Register | Disclaimer

   EN    FR    IT 

 









Legend :    VFR   Marginal VFR   IFR   Intensive IFR   Very Intensive IFR
Visi :
Ceiling :
>= 8 km
>= 3000ft
5 to 8 km
1000 to 3000 ft
1500m to 5 km
500 to 1000 ft
800 to 1500m
200 to 500 ft
< 800m
< 200 ft
Symbols :   Thunderstorms  Fog  Heavy snow  Heavy precipitations  Wind > 20 kt






- Airport Elevation : 671 ft
- IATA code : YSM


CYSM - Fort Smith

CURRENT METAR :
  • 301900Z VRB06KT 15SM BKN160 BKN240 17/01 A3004 RMK AC6CI1 SLP183 DENSITY ALT 1000FT

EXPIRED METARs :
  • 301800Z 30004G15KT 250V050 15SM SCT170 BKN240 17/00 A3004 RMK AC4CI2 SLP184 DENSITY ALT 900FT
  • 301700Z 02008KT 320V030 15SM FEW150 BKN260 15/M01 A3005 RMK AC2CI4 SLP184 DENSITY ALT 800FT

TAF TAF CYSM
Valid from the 30 at 18:00 until the 01 at 06:00 UTC


301740Z 3018/0106 36010KT P6SM BKN200
BECMG 0100/0102 34005KT RMK NXT FCST BY 010000Z
CZEG FIR / North America



MET'MAP, your aeronautical weather chart ! - Copyright ORBIFLY December 2007 - Disclaimer

ORBIFLY MET'MAP TEAM :

Programming & Development : Alexandra Zaïnal
Original concept : Baudouin d'Aumeries
Technical & hardware support : Manuel Goepfert
Assistance : Marc-Olivier Méhu




SOURCES & CREDITS :

   NOAA       Earth
Advisory